sensor_id;sensor_type;location;lat;lon;timestamp;P1;durP1;ratioP1;P2;durP2;ratioP2
4971;SDS011;2501;51.214;6.768;2024-01-30T00:01:41;18.87;;;11.27;;
4971;SDS011;2501;51.214;6.768;2024-01-30T00:04:09;16.55;;;10.15;;
4971;SDS011;2501;51.214;6.768;2024-01-30T00:06:37;17.95;;;10.38;;
4971;SDS011;2501;51.214;6.768;2024-01-30T00:09:06;18.10;;;11.07;;
4971;SDS011;2501;51.214;6.768;2024-01-30T00:11:35;17.63;;;10.13;;
4971;SDS011;2501;51.214;6.768;2024-01-30T00:14:04;16.80;;;10.50;;
4971;SDS011;2501;51.214;6.768;2024-01-30T00:16:35;19.92;;;11.40;;
4971;SDS011;2501;51.214;6.768;2024-01-30T00:19:03;19.83;;;10.70;;
4971;SDS011;2501;51.214;6.768;2024-01-30T00:21:33;20.80;;;11.10;;
4971;SDS011;2501;51.214;6.768;2024-01-30T00:24:02;17.23;;;10.63;;
4971;SDS011;2501;51.214;6.768;2024-01-30T00:26:30;19.75;;;11.20;;
4971;SDS011;2501;51.214;6.768;2024-01-30T00:28:59;16.35;;;10.38;;
4971;SDS011;2501;51.214;6.768;2024-01-30T00:31:27;15.32;;;11.02;;
4971;SDS011;2501;51.214;6.768;2024-01-30T00:33:58;15.43;;;10.40;;
4971;SDS011;2501;51.214;6.768;2024-01-30T00:36:27;16.65;;;10.82;;
4971;SDS011;2501;51.214;6.768;2024-01-30T00:38:56;17.05;;;10.70;;
4971;SDS011;2501;51.214;6.768;2024-01-30T00:41:24;17.13;;;11.10;;
4971;SDS011;2501;51.214;6.768;2024-01-30T00:43:52;19.83;;;12.20;;
4971;SDS011;2501;51.214;6.768;2024-01-30T00:46:21;19.25;;;11.98;;
4971;SDS011;2501;51.214;6.768;2024-01-30T00:48:49;18.98;;;11.55;;
4971;SDS011;2501;51.214;6.768;2024-01-30T00:51:20;20.17;;;12.20;;
4971;SDS011;2501;51.214;6.768;2024-01-30T00:53:49;14.43;;;10.27;;
4971;SDS011;2501;51.214;6.768;2024-01-30T00:56:18;24.47;;;11.50;;
4971;SDS011;2501;51.214;6.768;2024-01-30T00:58:47;15.50;;;10.70;;
4971;SDS011;2501;51.214;6.768;2024-01-30T01:01:16;17.48;;;10.95;;
4971;SDS011;2501;51.214;6.768;2024-01-30T01:03:44;22.63;;;11.23;;
4971;SDS011;2501;51.214;6.768;2024-01-30T01:06:13;15.85;;;11.10;;
4971;SDS011;2501;51.214;6.768;2024-01-30T01:08:44;19.00;;;12.07;;
4971;SDS011;2501;51.214;6.768;2024-01-30T01:11:13;16.83;;;11.33;;
4971;SDS011;2501;51.214;6.768;2024-01-30T01:13:41;23.27;;;11.73;;
4971;SDS011;2501;51.214;6.768;2024-01-30T01:16:10;14.55;;;10.90;;
4971;SDS011;2501;51.214;6.768;2024-01-30T01:18:38;21.00;;;12.05;;
4971;SDS011;2501;51.214;6.768;2024-01-30T01:21:06;19.55;;;11.55;;
4971;SDS011;2501;51.214;6.768;2024-01-30T01:23:35;20.58;;;11.57;;
4971;SDS011;2501;51.214;6.768;2024-01-30T01:26:06;19.40;;;12.77;;
4971;SDS011;2501;51.214;6.768;2024-01-30T01:28:36;18.73;;;12.23;;
4971;SDS011;2501;51.214;6.768;2024-01-30T01:31:04;18.45;;;12.23;;
4971;SDS011;2501;51.214;6.768;2024-01-30T01:33:33;19.63;;;11.77;;
4971;SDS011;2501;51.214;6.768;2024-01-30T01:36:03;18.80;;;11.57;;
4971;SDS011;2501;51.214;6.768;2024-01-30T01:38:31;20.00;;;12.30;;
4971;SDS011;2501;51.214;6.768;2024-01-30T01:41:00;22.85;;;12.55;;
4971;SDS011;2501;51.214;6.768;2024-01-30T01:43:31;19.85;;;12.75;;
4971;SDS011;2501;51.214;6.768;2024-01-30T01:45:59;23.08;;;12.32;;
4971;SDS011;2501;51.214;6.768;2024-01-30T01:48:28;22.77;;;13.25;;
4971;SDS011;2501;51.214;6.768;2024-01-30T01:50:57;19.80;;;12.07;;
4971;SDS011;2501;51.214;6.768;2024-01-30T01:53:26;25.35;;;13.70;;
4971;SDS011;2501;51.214;6.768;2024-01-30T01:55:54;24.33;;;12.93;;
4971;SDS011;2501;51.214;6.768;2024-01-30T01:58:24;23.65;;;13.18;;
4971;SDS011;2501;51.214;6.768;2024-01-30T02:00:58;21.13;;;12.07;;
4971;SDS011;2501;51.214;6.768;2024-01-30T02:03:27;21.77;;;12.75;;
4971;SDS011;2501;51.214;6.768;2024-01-30T02:05:56;23.13;;;12.97;;
4971;SDS011;2501;51.214;6.768;2024-01-30T02:08:25;25.38;;;13.90;;
4971;SDS011;2501;51.214;6.768;2024-01-30T02:10:54;26.80;;;13.40;;
4971;SDS011;2501;51.214;6.768;2024-01-30T02:13:23;21.55;;;12.68;;
4971;SDS011;2501;51.214;6.768;2024-01-30T02:15:51;24.88;;;12.90;;
4971;SDS011;2501;51.214;6.768;2024-01-30T02:18:22;27.52;;;13.50;;
4971;SDS011;2501;51.214;6.768;2024-01-30T02:20:51;25.15;;;12.88;;
4971;SDS011;2501;51.214;6.768;2024-01-30T02:23:24;30.77;;;15.25;;
4971;SDS011;2501;51.214;6.768;2024-01-30T02:25:53;27.65;;;13.73;;
4971;SDS011;2501;51.214;6.768;2024-01-30T02:28:22;32.28;;;13.50;;
4971;SDS011;2501;51.214;6.768;2024-01-30T02:30:50;23.88;;;13.50;;
4971;SDS011;2501;51.214;6.768;2024-01-30T02:33:19;19.73;;;12.47;;
4971;SDS011;2501;51.214;6.768;2024-01-30T02:35:47;29.38;;;14.25;;
4971;SDS011;2501;51.214;6.768;2024-01-30T02:38:16;27.05;;;13.60;;
4971;SDS011;2501;51.214;6.768;2024-01-30T02:40:49;31.45;;;14.50;;
4971;SDS011;2501;51.214;6.768;2024-01-30T02:43:18;23.65;;;13.65;;
4971;SDS011;2501;51.214;6.768;2024-01-30T02:45:46;24.45;;;12.40;;
4971;SDS011;2501;51.214;6.768;2024-01-30T02:48:15;22.70;;;13.48;;
4971;SDS011;2501;51.214;6.768;2024-01-30T02:50:43;24.65;;;14.00;;
4971;SDS011;2501;51.214;6.768;2024-01-30T02:53:12;30.00;;;13.18;;
4971;SDS011;2501;51.214;6.768;2024-01-30T02:55:40;25.95;;;13.98;;
4971;SDS011;2501;51.214;6.768;2024-01-30T02:58:11;25.58;;;13.43;;
4971;SDS011;2501;51.214;6.768;2024-01-30T03:00:40;21.30;;;11.63;;
4971;SDS011;2501;51.214;6.768;2024-01-30T03:03:08;20.88;;;12.85;;
4971;SDS011;2501;51.214;6.768;2024-01-30T03:05:37;24.25;;;12.90;;
4971;SDS011;2501;51.214;6.768;2024-01-30T03:08:05;24.63;;;12.77;;
4971;SDS011;2501;51.214;6.768;2024-01-30T03:10:34;30.08;;;14.25;;
4971;SDS011;2501;51.214;6.768;2024-01-30T03:13:02;23.75;;;12.10;;
4971;SDS011;2501;51.214;6.768;2024-01-30T03:15:33;22.55;;;12.75;;
4971;SDS011;2501;51.214;6.768;2024-01-30T03:18:02;19.67;;;11.03;;
4971;SDS011;2501;51.214;6.768;2024-01-30T03:20:31;20.50;;;12.17;;
4971;SDS011;2501;51.214;6.768;2024-01-30T03:23:00;18.35;;;11.57;;
4971;SDS011;2501;51.214;6.768;2024-01-30T03:25:28;18.77;;;11.10;;
4971;SDS011;2501;51.214;6.768;2024-01-30T03:27:57;22.50;;;12.02;;
4971;SDS011;2501;51.214;6.768;2024-01-30T03:30:25;19.52;;;11.63;;
4971;SDS011;2501;51.214;6.768;2024-01-30T03:32:56;18.97;;;11.70;;
4971;SDS011;2501;51.214;6.768;2024-01-30T03:35:25;17.58;;;11.75;;
4971;SDS011;2501;51.214;6.768;2024-01-30T03:37:53;17.83;;;11.43;;
4971;SDS011;2501;51.214;6.768;2024-01-30T03:40:21;20.90;;;11.03;;
4971;SDS011;2501;51.214;6.768;2024-01-30T03:42:50;17.67;;;11.20;;
4971;SDS011;2501;51.214;6.768;2024-01-30T03:45:18;18.02;;;11.40;;
4971;SDS011;2501;51.214;6.768;2024-01-30T03:47:47;24.05;;;12.15;;
4971;SDS011;2501;51.214;6.768;2024-01-30T03:50:18;18.75;;;11.30;;
4971;SDS011;2501;51.214;6.768;2024-01-30T03:52:46;21.92;;;11.25;;
4971;SDS011;2501;51.214;6.768;2024-01-30T03:55:15;18.45;;;11.07;;
4971;SDS011;2501;51.214;6.768;2024-01-30T03:57:43;21.13;;;12.03;;
4971;SDS011;2501;51.214;6.768;2024-01-30T04:00:12;19.40;;;10.57;;
4971;SDS011;2501;51.214;6.768;2024-01-30T04:02:44;20.33;;;10.75;;
4971;SDS011;2501;51.214;6.768;2024-01-30T04:05:13;22.38;;;11.90;;
4971;SDS011;2501;51.214;6.768;2024-01-30T04:07:44;15.32;;;10.40;;
4971;SDS011;2501;51.214;6.768;2024-01-30T04:10:12;19.13;;;10.80;;
4971;SDS011;2501;51.214;6.768;2024-01-30T04:12:41;19.05;;;9.93;;
4971;SDS011;2501;51.214;6.768;2024-01-30T04:15:09;20.67;;;10.88;;
4971;SDS011;2501;51.214;6.768;2024-01-30T04:17:38;15.50;;;10.80;;
4971;SDS011;2501;51.214;6.768;2024-01-30T04:20:07;15.20;;;11.10;;
4971;SDS011;2501;51.214;6.768;2024-01-30T04:22:40;20.20;;;10.23;;
4971;SDS011;2501;51.214;6.768;2024-01-30T04:25:11;19.92;;;12.00;;
4971;SDS011;2501;51.214;6.768;2024-01-30T04:27:39;16.00;;;9.80;;
4971;SDS011;2501;51.214;6.768;2024-01-30T04:30:08;18.60;;;10.10;;
4971;SDS011;2501;51.214;6.768;2024-01-30T04:32:37;16.98;;;10.00;;
4971;SDS011;2501;51.214;6.768;2024-01-30T04:35:06;16.75;;;11.48;;
4971;SDS011;2501;51.214;6.768;2024-01-30T04:37:35;18.67;;;10.75;;
4971;SDS011;2501;51.214;6.768;2024-01-30T04:40:04;16.65;;;9.70;;
4971;SDS011;2501;51.214;6.768;2024-01-30T04:42:36;17.48;;;10.15;;
4971;SDS011;2501;51.214;6.768;2024-01-30T04:45:05;18.33;;;11.00;;
4971;SDS011;2501;51.214;6.768;2024-01-30T04:47:34;21.85;;;11.65;;
4971;SDS011;2501;51.214;6.768;2024-01-30T04:50:04;16.42;;;11.25;;
4971;SDS011;2501;51.214;6.768;2024-01-30T04:52:34;19.58;;;11.00;;
4971;SDS011;2501;51.214;6.768;2024-01-30T04:55:02;16.70;;;10.05;;
4971;SDS011;2501;51.214;6.768;2024-01-30T04:57:31;20.88;;;11.15;;
4971;SDS011;2501;51.214;6.768;2024-01-30T05:00:03;18.40;;;11.13;;
4971;SDS011;2501;51.214;6.768;2024-01-30T05:02:33;16.20;;;10.10;;
4971;SDS011;2501;51.214;6.768;2024-01-30T05:05:02;21.27;;;10.87;;
4971;SDS011;2501;51.214;6.768;2024-01-30T05:07:30;19.10;;;10.05;;
4971;SDS011;2501;51.214;6.768;2024-01-30T05:09:59;15.82;;;10.00;;
4971;SDS011;2501;51.214;6.768;2024-01-30T05:12:28;15.50;;;10.35;;
4971;SDS011;2501;51.214;6.768;2024-01-30T05:14:57;13.43;;;9.60;;
4971;SDS011;2501;51.214;6.768;2024-01-30T05:17:28;17.05;;;11.13;;
4971;SDS011;2501;51.214;6.768;2024-01-30T05:19:56;16.77;;;9.60;;
4971;SDS011;2501;51.214;6.768;2024-01-30T05:25:27;16.88;;;10.75;;
4971;SDS011;2501;51.214;6.768;2024-01-30T05:28:02;14.75;;;9.80;;
4971;SDS011;2501;51.214;6.768;2024-01-30T05:30:32;17.05;;;10.65;;
4971;SDS011;2501;51.214;6.768;2024-01-30T05:33:04;15.70;;;10.63;;
4971;SDS011;2501;51.214;6.768;2024-01-30T05:35:32;21.40;;;11.43;;
4971;SDS011;2501;51.214;6.768;2024-01-30T05:38:00;18.17;;;10.38;;
4971;SDS011;2501;51.214;6.768;2024-01-30T05:40:28;17.55;;;10.80;;
4971;SDS011;2501;51.214;6.768;2024-01-30T05:42:56;14.80;;;10.80;;
4971;SDS011;2501;51.214;6.768;2024-01-30T05:45:27;17.98;;;11.02;;
4971;SDS011;2501;51.214;6.768;2024-01-30T05:48:00;19.00;;;11.25;;
4971;SDS011;2501;51.214;6.768;2024-01-30T05:50:38;18.88;;;11.20;;
4971;SDS011;2501;51.214;6.768;2024-01-30T05:53:06;15.18;;;10.70;;
4971;SDS011;2501;51.214;6.768;2024-01-30T05:55:37;18.83;;;10.53;;
4971;SDS011;2501;51.214;6.768;2024-01-30T05:58:05;15.75;;;10.30;;
4971;SDS011;2501;51.214;6.768;2024-01-30T06:00:34;17.67;;;10.50;;
4971;SDS011;2501;51.214;6.768;2024-01-30T06:03:02;18.00;;;11.20;;
4971;SDS011;2501;51.214;6.768;2024-01-30T06:05:34;17.52;;;10.85;;
4971;SDS011;2501;51.214;6.768;2024-01-30T06:08:02;20.10;;;11.02;;
4971;SDS011;2501;51.214;6.768;2024-01-30T06:10:31;23.23;;;10.40;;
4971;SDS011;2501;51.214;6.768;2024-01-30T06:13:00;20.08;;;11.10;;
4971;SDS011;2501;51.214;6.768;2024-01-30T06:15:28;17.80;;;10.95;;
4971;SDS011;2501;51.214;6.768;2024-01-30T06:17:57;17.10;;;11.18;;
4971;SDS011;2501;51.214;6.768;2024-01-30T06:20:26;17.33;;;11.02;;
4971;SDS011;2501;51.214;6.768;2024-01-30T06:22:57;15.50;;;10.13;;
4971;SDS011;2501;51.214;6.768;2024-01-30T06:25:25;16.27;;;11.20;;
4971;SDS011;2501;51.214;6.768;2024-01-30T06:27:54;22.63;;;11.13;;
4971;SDS011;2501;51.214;6.768;2024-01-30T06:30:22;17.25;;;12.15;;
4971;SDS011;2501;51.214;6.768;2024-01-30T06:32:51;15.63;;;11.05;;
4971;SDS011;2501;51.214;6.768;2024-01-30T06:35:19;18.67;;;11.73;;
4971;SDS011;2501;51.214;6.768;2024-01-30T06:37:48;17.13;;;11.48;;
4971;SDS011;2501;51.214;6.768;2024-01-30T06:40:19;18.00;;;11.40;;
4971;SDS011;2501;51.214;6.768;2024-01-30T06:42:48;14.55;;;10.90;;
4971;SDS011;2501;51.214;6.768;2024-01-30T06:45:16;19.42;;;10.77;;
4971;SDS011;2501;51.214;6.768;2024-01-30T06:47:44;16.73;;;10.73;;
4971;SDS011;2501;51.214;6.768;2024-01-30T06:50:13;18.02;;;11.05;;
4971;SDS011;2501;51.214;6.768;2024-01-30T06:52:42;13.63;;;10.05;;
4971;SDS011;2501;51.214;6.768;2024-01-30T06:55:10;16.90;;;10.73;;
4971;SDS011;2501;51.214;6.768;2024-01-30T06:57:41;18.05;;;10.88;;
4971;SDS011;2501;51.214;6.768;2024-01-30T07:00:10;15.98;;;11.35;;
4971;SDS011;2501;51.214;6.768;2024-01-30T07:02:40;17.42;;;10.93;;
4971;SDS011;2501;51.214;6.768;2024-01-30T07:05:09;29.27;;;14.95;;
4971;SDS011;2501;51.214;6.768;2024-01-30T07:07:38;24.35;;;11.70;;
4971;SDS011;2501;51.214;6.768;2024-01-30T07:10:07;24.40;;;11.10;;
4971;SDS011;2501;51.214;6.768;2024-01-30T07:12:36;20.58;;;10.63;;
4971;SDS011;2501;51.214;6.768;2024-01-30T07:15:07;18.60;;;10.60;;
4971;SDS011;2501;51.214;6.768;2024-01-30T07:17:37;21.38;;;10.90;;
4971;SDS011;2501;51.214;6.768;2024-01-30T07:20:06;17.67;;;10.27;;
4971;SDS011;2501;51.214;6.768;2024-01-30T07:22:35;21.08;;;12.18;;
4971;SDS011;2501;51.214;6.768;2024-01-30T07:25:04;24.33;;;12.75;;
4971;SDS011;2501;51.214;6.768;2024-01-30T07:27:34;20.73;;;11.10;;
4971;SDS011;2501;51.214;6.768;2024-01-30T07:30:03;18.35;;;10.70;;
4971;SDS011;2501;51.214;6.768;2024-01-30T07:32:34;14.73;;;10.30;;
4971;SDS011;2501;51.214;6.768;2024-01-30T07:35:03;19.40;;;10.75;;
4971;SDS011;2501;51.214;6.768;2024-01-30T07:37:32;17.02;;;11.18;;
4971;SDS011;2501;51.214;6.768;2024-01-30T07:40:01;20.83;;;11.57;;
4971;SDS011;2501;51.214;6.768;2024-01-30T07:42:30;20.00;;;11.37;;
4971;SDS011;2501;51.214;6.768;2024-01-30T07:44:58;19.17;;;10.65;;
4971;SDS011;2501;51.214;6.768;2024-01-30T07:47:28;16.55;;;9.15;;
4971;SDS011;2501;51.214;6.768;2024-01-30T07:49:59;20.10;;;10.25;;
4971;SDS011;2501;51.214;6.768;2024-01-30T07:52:28;16.77;;;10.73;;
4971;SDS011;2501;51.214;6.768;2024-01-30T07:54:57;20.45;;;11.27;;
4971;SDS011;2501;51.214;6.768;2024-01-30T07:57:25;16.15;;;10.82;;
4971;SDS011;2501;51.214;6.768;2024-01-30T07:59:54;19.67;;;11.60;;
4971;SDS011;2501;51.214;6.768;2024-01-30T08:02:23;14.05;;;9.75;;
4971;SDS011;2501;51.214;6.768;2024-01-30T08:04:52;17.23;;;10.48;;
4971;SDS011;2501;51.214;6.768;2024-01-30T08:07:23;22.45;;;11.90;;
4971;SDS011;2501;51.214;6.768;2024-01-30T08:09:51;17.52;;;11.63;;
4971;SDS011;2501;51.214;6.768;2024-01-30T08:12:19;17.58;;;10.43;;
4971;SDS011;2501;51.214;6.768;2024-01-30T08:14:48;19.08;;;11.18;;
4971;SDS011;2501;51.214;6.768;2024-01-30T08:17:17;15.30;;;10.75;;
4971;SDS011;2501;51.214;6.768;2024-01-30T08:19:45;25.10;;;11.70;;
4971;SDS011;2501;51.214;6.768;2024-01-30T08:22:13;18.33;;;11.90;;
4971;SDS011;2501;51.214;6.768;2024-01-30T08:24:44;18.02;;;10.82;;
4971;SDS011;2501;51.214;6.768;2024-01-30T08:27:13;23.50;;;12.52;;
4971;SDS011;2501;51.214;6.768;2024-01-30T08:29:41;13.10;;;9.93;;
4971;SDS011;2501;51.214;6.768;2024-01-30T08:32:10;21.20;;;11.13;;
4971;SDS011;2501;51.214;6.768;2024-01-30T08:34:38;14.85;;;10.40;;
4971;SDS011;2501;51.214;6.768;2024-01-30T08:37:07;16.60;;;10.73;;
4971;SDS011;2501;51.214;6.768;2024-01-30T08:39:35;17.40;;;10.88;;
4971;SDS011;2501;51.214;6.768;2024-01-30T08:42:07;22.13;;;12.57;;
4971;SDS011;2501;51.214;6.768;2024-01-30T08:44:35;21.73;;;11.63;;
4971;SDS011;2501;51.214;6.768;2024-01-30T08:47:04;17.48;;;11.23;;
4971;SDS011;2501;51.214;6.768;2024-01-30T08:49:32;21.65;;;11.30;;
4971;SDS011;2501;51.214;6.768;2024-01-30T08:52:01;25.50;;;11.90;;
4971;SDS011;2501;51.214;6.768;2024-01-30T08:54:31;18.65;;;10.65;;
4971;SDS011;2501;51.214;6.768;2024-01-30T08:57:00;21.05;;;11.93;;
4971;SDS011;2501;51.214;6.768;2024-01-30T08:59:31;21.85;;;11.93;;
4971;SDS011;2501;51.214;6.768;2024-01-30T09:02:00;21.83;;;11.27;;
4971;SDS011;2501;51.214;6.768;2024-01-30T09:04:29;16.93;;;11.50;;
4971;SDS011;2501;51.214;6.768;2024-01-30T09:06:57;22.80;;;11.80;;
4971;SDS011;2501;51.214;6.768;2024-01-30T09:09:26;17.63;;;11.55;;
4971;SDS011;2501;51.214;6.768;2024-01-30T09:11:54;19.95;;;12.30;;
4971;SDS011;2501;51.214;6.768;2024-01-30T09:14:27;17.50;;;11.70;;
4971;SDS011;2501;51.214;6.768;2024-01-30T09:16:58;14.95;;;11.13;;
4971;SDS011;2501;51.214;6.768;2024-01-30T09:19:28;20.02;;;12.75;;
4971;SDS011;2501;51.214;6.768;2024-01-30T09:22:00;21.33;;;10.53;;
4971;SDS011;2501;51.214;6.768;2024-01-30T09:24:28;21.85;;;12.30;;
4971;SDS011;2501;51.214;6.768;2024-01-30T09:26:57;16.98;;;11.38;;
4971;SDS011;2501;51.214;6.768;2024-01-30T09:29:25;19.10;;;11.10;;
4971;SDS011;2501;51.214;6.768;2024-01-30T09:31:54;16.50;;;10.60;;
4971;SDS011;2501;51.214;6.768;2024-01-30T09:34:25;17.23;;;11.10;;
4971;SDS011;2501;51.214;6.768;2024-01-30T09:36:54;20.10;;;11.10;;
4971;SDS011;2501;51.214;6.768;2024-01-30T09:39:22;19.02;;;11.40;;
4971;SDS011;2501;51.214;6.768;2024-01-30T09:41:52;20.50;;;11.95;;
4971;SDS011;2501;51.214;6.768;2024-01-30T09:44:28;25.08;;;10.70;;
4971;SDS011;2501;51.214;6.768;2024-01-30T09:46:57;15.18;;;12.00;;
4971;SDS011;2501;51.214;6.768;2024-01-30T09:49:32;17.75;;;10.85;;
4971;SDS011;2501;51.214;6.768;2024-01-30T09:52:00;15.30;;;11.10;;
4971;SDS011;2501;51.214;6.768;2024-01-30T09:54:30;18.40;;;11.20;;
4971;SDS011;2501;51.214;6.768;2024-01-30T09:56:59;21.70;;;11.93;;
4971;SDS011;2501;51.214;6.768;2024-01-30T09:59:27;19.75;;;11.35;;
4971;SDS011;2501;51.214;6.768;2024-01-30T10:01:56;24.63;;;14.73;;
4971;SDS011;2501;51.214;6.768;2024-01-30T10:04:25;36.83;;;17.52;;
4971;SDS011;2501;51.214;6.768;2024-01-30T10:06:56;27.52;;;15.85;;
4971;SDS011;2501;51.214;6.768;2024-01-30T10:09:25;23.08;;;13.35;;
4971;SDS011;2501;51.214;6.768;2024-01-30T10:11:54;24.77;;;12.07;;
4971;SDS011;2501;51.214;6.768;2024-01-30T10:14:22;18.73;;;13.13;;
4971;SDS011;2501;51.214;6.768;2024-01-30T10:16:51;25.08;;;13.35;;
4971;SDS011;2501;51.214;6.768;2024-01-30T10:19:19;21.98;;;13.10;;
4971;SDS011;2501;51.214;6.768;2024-01-30T10:21:48;22.80;;;13.97;;
4971;SDS011;2501;51.214;6.768;2024-01-30T10:24:19;22.50;;;13.10;;
4971;SDS011;2501;51.214;6.768;2024-01-30T10:26:53;20.85;;;12.20;;
4971;SDS011;2501;51.214;6.768;2024-01-30T10:29:21;19.25;;;12.65;;
4971;SDS011;2501;51.214;6.768;2024-01-30T10:31:57;18.40;;;11.25;;
4971;SDS011;2501;51.214;6.768;2024-01-30T10:34:26;19.90;;;11.67;;
4971;SDS011;2501;51.214;6.768;2024-01-30T10:36:59;16.75;;;12.20;;
4971;SDS011;2501;51.214;6.768;2024-01-30T10:39:40;20.30;;;12.38;;
4971;SDS011;2501;51.214;6.768;2024-01-30T10:42:11;20.90;;;11.93;;
4971;SDS011;2501;51.214;6.768;2024-01-30T10:44:44;20.92;;;12.80;;
4971;SDS011;2501;51.214;6.768;2024-01-30T10:47:22;29.48;;;13.80;;
4971;SDS011;2501;51.214;6.768;2024-01-30T10:49:55;16.98;;;12.00;;
4971;SDS011;2501;51.214;6.768;2024-01-30T10:52:24;18.63;;;11.90;;
4971;SDS011;2501;51.214;6.768;2024-01-30T10:54:56;23.35;;;12.52;;
4971;SDS011;2501;51.214;6.768;2024-01-30T10:57:26;25.48;;;12.98;;
4971;SDS011;2501;51.214;6.768;2024-01-30T10:59:56;16.85;;;11.43;;
4971;SDS011;2501;51.214;6.768;2024-01-30T11:02:26;15.55;;;11.43;;
4971;SDS011;2501;51.214;6.768;2024-01-30T11:04:56;23.92;;;11.88;;
4971;SDS011;2501;51.214;6.768;2024-01-30T11:07:27;21.10;;;11.60;;
4971;SDS011;2501;51.214;6.768;2024-01-30T11:10:03;17.92;;;11.48;;
4971;SDS011;2501;51.214;6.768;2024-01-30T11:12:38;22.42;;;11.93;;
4971;SDS011;2501;51.214;6.768;2024-01-30T11:15:11;20.80;;;11.90;;
4971;SDS011;2501;51.214;6.768;2024-01-30T11:17:45;27.98;;;17.10;;
4971;SDS011;2501;51.214;6.768;2024-01-30T11:20:19;23.35;;;12.60;;
4971;SDS011;2501;51.214;6.768;2024-01-30T11:22:50;19.17;;;12.15;;
4971;SDS011;2501;51.214;6.768;2024-01-30T11:25:22;19.60;;;11.70;;
4971;SDS011;2501;51.214;6.768;2024-01-30T11:27:52;15.15;;;10.95;;
4971;SDS011;2501;51.214;6.768;2024-01-30T11:30:22;18.70;;;11.97;;
4971;SDS011;2501;51.214;6.768;2024-01-30T11:32:58;21.42;;;12.98;;
4971;SDS011;2501;51.214;6.768;2024-01-30T11:35:29;21.67;;;13.00;;
4971;SDS011;2501;51.214;6.768;2024-01-30T11:38:00;24.15;;;11.50;;
4971;SDS011;2501;51.214;6.768;2024-01-30T11:40:32;24.77;;;13.88;;
4971;SDS011;2501;51.214;6.768;2024-01-30T11:43:02;21.88;;;12.52;;
4971;SDS011;2501;51.214;6.768;2024-01-30T11:45:33;19.77;;;11.70;;
4971;SDS011;2501;51.214;6.768;2024-01-30T11:48:02;16.35;;;12.05;;
4971;SDS011;2501;51.214;6.768;2024-01-30T11:50:32;19.33;;;12.27;;
4971;SDS011;2501;51.214;6.768;2024-01-30T11:53:03;21.25;;;11.70;;
4971;SDS011;2501;51.214;6.768;2024-01-30T11:55:35;19.27;;;11.30;;
4971;SDS011;2501;51.214;6.768;2024-01-30T11:58:03;25.77;;;11.87;;
4971;SDS011;2501;51.214;6.768;2024-01-30T12:00:32;21.63;;;12.45;;
4971;SDS011;2501;51.214;6.768;2024-01-30T12:03:01;20.63;;;11.80;;
4971;SDS011;2501;51.214;6.768;2024-01-30T12:05:31;17.80;;;10.20;;
4971;SDS011;2501;51.214;6.768;2024-01-30T12:08:00;19.52;;;11.18;;
4971;SDS011;2501;51.214;6.768;2024-01-30T12:10:29;19.50;;;10.80;;
4971;SDS011;2501;51.214;6.768;2024-01-30T12:13:00;20.10;;;11.15;;
4971;SDS011;2501;51.214;6.768;2024-01-30T12:15:30;19.50;;;10.05;;
4971;SDS011;2501;51.214;6.768;2024-01-30T12:18:05;19.70;;;10.60;;
4971;SDS011;2501;51.214;6.768;2024-01-30T12:20:34;18.35;;;9.63;;
4971;SDS011;2501;51.214;6.768;2024-01-30T12:23:02;23.23;;;9.00;;
4971;SDS011;2501;51.214;6.768;2024-01-30T12:25:31;18.80;;;9.03;;
4971;SDS011;2501;51.214;6.768;2024-01-30T12:28:03;15.02;;;9.50;;
4971;SDS011;2501;51.214;6.768;2024-01-30T12:30:32;23.60;;;9.40;;
4971;SDS011;2501;51.214;6.768;2024-01-30T12:33:03;18.27;;;8.88;;
4971;SDS011;2501;51.214;6.768;2024-01-30T12:35:34;13.07;;;8.82;;
4971;SDS011;2501;51.214;6.768;2024-01-30T12:38:02;19.20;;;9.70;;
4971;SDS011;2501;51.214;6.768;2024-01-30T12:40:33;16.58;;;8.80;;
4971;SDS011;2501;51.214;6.768;2024-01-30T12:43:04;17.23;;;7.90;;
4971;SDS011;2501;51.214;6.768;2024-01-30T12:45:33;15.68;;;7.97;;
4971;SDS011;2501;51.214;6.768;2024-01-30T12:48:01;14.60;;;7.53;;
4971;SDS011;2501;51.214;6.768;2024-01-30T12:50:30;19.08;;;7.75;;
4971;SDS011;2501;51.214;6.768;2024-01-30T12:52:59;15.30;;;8.50;;
4971;SDS011;2501;51.214;6.768;2024-01-30T12:55:28;15.45;;;7.18;;
4971;SDS011;2501;51.214;6.768;2024-01-30T12:57:56;19.38;;;8.50;;
4971;SDS011;2501;51.214;6.768;2024-01-30T13:00:27;20.00;;;8.15;;
4971;SDS011;2501;51.214;6.768;2024-01-30T13:02:56;15.43;;;7.30;;
4971;SDS011;2501;51.214;6.768;2024-01-30T13:05:24;12.98;;;7.53;;
4971;SDS011;2501;51.214;6.768;2024-01-30T13:07:53;22.60;;;7.97;;
4971;SDS011;2501;51.214;6.768;2024-01-30T13:10:22;20.75;;;7.90;;
4971;SDS011;2501;51.214;6.768;2024-01-30T13:12:51;12.93;;;7.18;;
4971;SDS011;2501;51.214;6.768;2024-01-30T13:15:19;19.33;;;7.90;;
4971;SDS011;2501;51.214;6.768;2024-01-30T13:17:50;16.20;;;8.88;;
4971;SDS011;2501;51.214;6.768;2024-01-30T13:20:19;17.08;;;8.80;;
4971;SDS011;2501;51.214;6.768;2024-01-30T13:22:48;18.25;;;8.00;;
4971;SDS011;2501;51.214;6.768;2024-01-30T13:25:17;17.85;;;7.70;;
4971;SDS011;2501;51.214;6.768;2024-01-30T13:27:45;12.20;;;7.50;;
4971;SDS011;2501;51.214;6.768;2024-01-30T13:30:14;19.00;;;8.35;;
4971;SDS011;2501;51.214;6.768;2024-01-30T13:32:42;16.02;;;7.80;;
4971;SDS011;2501;51.214;6.768;2024-01-30T13:35:14;13.35;;;7.95;;
4971;SDS011;2501;51.214;6.768;2024-01-30T13:37:43;12.68;;;7.60;;
4971;SDS011;2501;51.214;6.768;2024-01-30T13:40:13;14.10;;;7.80;;
4971;SDS011;2501;51.214;6.768;2024-01-30T13:42:41;23.40;;;10.38;;
4971;SDS011;2501;51.214;6.768;2024-01-30T13:45:10;15.38;;;9.20;;
4971;SDS011;2501;51.214;6.768;2024-01-30T13:47:39;17.80;;;9.82;;
4971;SDS011;2501;51.214;6.768;2024-01-30T13:50:07;16.30;;;8.85;;
4971;SDS011;2501;51.214;6.768;2024-01-30T13:52:42;18.88;;;9.82;;
4971;SDS011;2501;51.214;6.768;2024-01-30T13:55:11;15.23;;;9.57;;
4971;SDS011;2501;51.214;6.768;2024-01-30T13:57:39;12.63;;;8.80;;
4971;SDS011;2501;51.214;6.768;2024-01-30T14:00:09;18.25;;;9.05;;
4971;SDS011;2501;51.214;6.768;2024-01-30T14:02:41;17.93;;;10.20;;
4971;SDS011;2501;51.214;6.768;2024-01-30T14:05:09;14.63;;;8.60;;
4971;SDS011;2501;51.214;6.768;2024-01-30T14:07:38;13.30;;;8.95;;
4971;SDS011;2501;51.214;6.768;2024-01-30T14:10:10;23.52;;;11.30;;
4971;SDS011;2501;51.214;6.768;2024-01-30T14:12:39;18.75;;;9.60;;
4971;SDS011;2501;51.214;6.768;2024-01-30T14:15:08;22.77;;;10.60;;
4971;SDS011;2501;51.214;6.768;2024-01-30T14:17:38;19.83;;;9.73;;
4971;SDS011;2501;51.214;6.768;2024-01-30T14:20:07;20.10;;;9.75;;
4971;SDS011;2501;51.214;6.768;2024-01-30T14:22:36;13.10;;;8.45;;
4971;SDS011;2501;51.214;6.768;2024-01-30T14:25:05;16.90;;;9.00;;
4971;SDS011;2501;51.214;6.768;2024-01-30T14:27:38;23.70;;;9.75;;
4971;SDS011;2501;51.214;6.768;2024-01-30T14:30:07;13.50;;;8.10;;
4971;SDS011;2501;51.214;6.768;2024-01-30T14:32:38;14.88;;;7.90;;
4971;SDS011;2501;51.214;6.768;2024-01-30T14:35:09;15.05;;;8.80;;
4971;SDS011;2501;51.214;6.768;2024-01-30T14:37:38;17.30;;;8.90;;
4971;SDS011;2501;51.214;6.768;2024-01-30T14:40:07;14.20;;;8.60;;
4971;SDS011;2501;51.214;6.768;2024-01-30T14:42:38;16.00;;;8.77;;
4971;SDS011;2501;51.214;6.768;2024-01-30T14:45:07;15.55;;;8.82;;
4971;SDS011;2501;51.214;6.768;2024-01-30T14:47:36;13.95;;;8.98;;
4971;SDS011;2501;51.214;6.768;2024-01-30T14:50:06;16.23;;;8.32;;
4971;SDS011;2501;51.214;6.768;2024-01-30T14:52:35;19.50;;;9.55;;
4971;SDS011;2501;51.214;6.768;2024-01-30T14:55:05;14.50;;;8.55;;
4971;SDS011;2501;51.214;6.768;2024-01-30T14:57:34;18.50;;;9.43;;
4971;SDS011;2501;51.214;6.768;2024-01-30T15:00:06;18.33;;;9.75;;
4971;SDS011;2501;51.214;6.768;2024-01-30T15:02:35;15.70;;;7.57;;
4971;SDS011;2501;51.214;6.768;2024-01-30T15:05:04;17.85;;;8.18;;
4971;SDS011;2501;51.214;6.768;2024-01-30T15:07:32;17.90;;;8.30;;